Terminal Aerodrome Forecast
Issued by NWS Wakefield, VA

Home | Current Version | Previous Version | Text Only | Print | Product List | Glossary On
Versions: 1 2 3 4 5 6 7 8 9 10 11 12 13 14 15 16 17 18 19 20 21
000
FTUS41 KAKQ 261733
TAFSBY
TAF
KSBY 261733Z 2618/2718 28009KT P6SM SCT200
     FM270000 20004KT P6SM SCT250
     FM270500 16004KT P6SM BKN100
     FM270600 15004KT P6SM VCSH BKN080
     FM270800 12005KT 6SM -SHRA OVC020
     FM271200 11006KT 4SM SHRA OVC008
     FM271500 15008KT 4SM SHRA BKN010=

USA.gov is the U.S. government's official web portal to all federal, state and local government web resources and services.